Time;durP1;ratioP1;P1;durP2;ratioP2;P2;SDS_P1;SDS_P2;PMS_P1;PMS_P2;Temp;Humidity;BMP_temperature;BMP_pressure;BME280_temperature;BME280_humidity;BME280_pressure;Samples;Min_cycle;Max_cycle;Signal;HPM_P1;HPM_P2
2023/03/08 00:00:18;;;;;;;;;;;;;;;;;;4467601;32;19940;-78
2023/03/08 00:02:43;;;;;;;;;;;;;;;;;;4453339;32;19950;-78
2023/03/08 00:05:08;;;;;;;;;;;;;;;;;;4467074;32;19932;-77
2023/03/08 00:07:33;;;;;;;;;;;;;;;;;;4467408;32;19955;-77
2023/03/08 00:09:58;;;;;;;;;;;;;;;;;;4467541;32;20290;-78
2023/03/08 00:12:23;;;;;;;;;;;;;;;;;;4452637;32;19940;-78
2023/03/08 00:14:49;;;;;;;;;;;;;;;;;;4452476;32;19942;-77
2023/03/08 00:17:14;;;;;;;;;;;;;;;;;;4467096;32;19931;-78
2023/03/08 00:19:39;;;;;;;;;;;;;;;;;;4467518;32;19944;-77
2023/03/08 00:22:04;;;;;;;;;;;;;;;;;;4452340;32;19936;-77
2023/03/08 00:24:29;;;;;;;;;;;;;;;;;;4466452;32;19932;-77
2023/03/08 00:26:54;;;;;;;;;;;;;;;;;;4466592;32;20373;-77
2023/03/08 00:29:19;;;;;;;;;;;;;;;;;;4467229;32;19936;-77
2023/03/08 00:31:44;;;;;;;;;;;;;;;;;;4469753;32;19950;-78
2023/03/08 00:34:09;;;;;;;;;;;;;;;;;;4455153;32;19972;-77
2023/03/08 00:36:35;;;;;;;;;;;;;;;;;;4469301;32;20411;-77
2023/03/08 00:39:00;;;;;;;;;;;;;;;;;;4469801;32;19940;-77
2023/03/08 00:41:25;;;;;;;;;;;;;;;;;;4455351;32;19950;-77
2023/03/08 00:43:50;;;;;;;;;;;;;;;;;;4469156;32;19936;-77
2023/03/08 00:46:15;;;;;;;;;;;;;;;;;;4455234;32;20338;-77
2023/03/08 00:48:40;;;;;;;;;;;;;;;;;;4468978;32;19927;-77
2023/03/08 00:51:05;;;;;;;;;;;;;;;;;;4470139;32;19956;-77
2023/03/08 00:53:30;;;;;;;;;;;;;;;;;;4470395;32;19936;-77
2023/03/08 00:55:56;;;;;;;;;;;;;;;;;;4469400;32;20269;-77
2023/03/08 00:58:21;;;;;;;;;;;;;;;;;;4470478;32;20278;-77
2023/03/08 01:00:46;;;;;;;;;;;;;;;;;;4469787;32;19987;-77
2023/03/08 01:03:11;;;;;;;;;;;;;;;;;;4469685;32;19936;-77
2023/03/08 01:05:36;;;;;;;;;;;;;;;;;;4454735;32;20365;-77
2023/03/08 01:08:02;;;;;;;;;;;;;;;;;;4454335;32;19940;-77
2023/03/08 01:10:27;;;;;;;;;;;;;;;;;;4470034;32;19963;-76
2023/03/08 01:12:52;;;;;;;;;;;;;;;;;;4472826;32;20343;-77
2023/03/08 01:15:17;;;;;;;;;;;;;;;;;;4455141;32;19968;-77
2023/03/08 01:17:43;;;;;;;;;;;;;;;;;;4470843;32;19944;-76
2023/03/08 01:20:08;;;;;;;;;;;;;;;;;;4469019;32;19940;-76
2023/03/08 01:22:35;;;;;;;;;;;;;;;;;;4450950;32;20011;-76
2023/03/08 01:25:01;;;;;;;;;;;;;;;;;;4456444;32;19950;-77
2023/03/08 01:27:26;;;;;;;;;;;;;;;;;;4455377;32;19940;-76
2023/03/08 01:29:51;;;;;;;;;;;;;;;;;;4454184;32;19969;-76
2023/03/08 01:32:16;;;;;;;;;;;;;;;;;;4453546;32;19967;-76
2023/03/08 01:34:41;;;;;;;;;;;;;;;;;;4453406;32;19960;-76
2023/03/08 01:37:07;;;;;;;;;;;;;;;;;;4438665;32;19940;-76
2023/03/08 01:39:32;;;;;;;;;;;;;;;;;;4439654;32;19933;-76
2023/03/08 01:41:58;;;;;;;;;;;;;;;;;;4453268;32;19983;-76
2023/03/08 01:44:23;;;;;;;;;;;;;;;;;;4453717;32;20001;-76
2023/03/08 01:46:48;;;;;;;;;;;;;;;;;;4452481;32;19940;-76
2023/03/08 01:49:13;;;;;;;;;;;;;;;;;;4438560;32;19933;-76
2023/03/08 01:51:38;;;;;;;;;;;;;;;;;;4438595;32;19967;-77
2023/03/08 01:54:03;;;;;;;;;;;;;;;;;;4438777;32;19936;-76
2023/03/08 01:56:28;;;;;;;;;;;;;;;;;;4455421;32;19956;-76
2023/03/08 01:58:53;;;;;;;;;;;;;;;;;;4455301;32;19973;-77
2023/03/08 02:01:19;;;;;;;;;;;;;;;;;;4440425;32;19971;-76
2023/03/08 02:03:44;;;;;;;;;;;;;;;;;;4453479;32;19940;-76
2023/03/08 02:06:09;;;;;;;;;;;;;;;;;;4452551;32;19951;-76
2023/03/08 02:08:34;;;;;;;;;;;;;;;;;;4453702;32;19932;-75
2023/03/08 02:11:00;;;;;;;;;;;;;;;;;;4452259;32;20362;-76
2023/03/08 02:13:25;;;;;;;;;;;;;;;;;;4439123;32;19948;-75
2023/03/08 02:15:50;;;;;;;;;;;;;;;;;;4452163;32;19974;-75
2023/03/08 02:18:15;;;;;;;;;;;;;;;;;;4453517;32;19968;-76
2023/03/08 02:20:40;;;;;;;;;;;;;;;;;;4452656;32;19933;-74
2023/03/08 02:23:06;;;;;;;;;;;;;;;;;;4452211;32;19936;-76
2023/03/08 02:25:31;;;;;;;;;;;;;;;;;;4452860;32;20310;-76
2023/03/08 02:27:56;;;;;;;;;;;;;;;;;;4452044;32;19960;-76
2023/03/08 02:30:22;;;;;;;;;;;;;;;;;;4452720;32;19936;-75
2023/03/08 02:32:47;;;;;;;;;;;;;;;;;;4452912;32;20002;-76
2023/03/08 02:35:12;;;;;;;;;;;;;;;;;;4438095;32;19937;-76
2023/03/08 02:37:37;;;;;;;;;;;;;;;;;;4438477;32;19990;-76
2023/03/08 02:40:02;;;;;;;;;;;;;;;;;;4438496;32;19941;-76
2023/03/08 02:42:27;;;;;;;;;;;;;;;;;;4454560;32;19952;-76
2023/03/08 02:44:52;;;;;;;;;;;;;;;;;;4452678;32;20322;-77
2023/03/08 02:47:17;;;;;;;;;;;;;;;;;;4453800;32;19990;-76
2023/03/08 02:49:42;;;;;;;;;;;;;;;;;;4451954;32;19937;-77
2023/03/08 02:52:07;;;;;;;;;;;;;;;;;;4452974;32;19971;-76
2023/03/08 02:54:33;;;;;;;;;;;;;;;;;;4437991;32;19992;-76
2023/03/08 02:57:12;;;;;;;;;;;;;;;;;;4453615;32;20016;-76
2023/03/08 02:59:37;;;;;;;;;;;;;;;;;;4453526;32;19971;-76
2023/03/08 03:02:02;;;;;;;;;;;;;;;;;;4453740;32;19948;-75
2023/03/08 03:04:27;;;;;;;;;;;;;;;;;;4452633;32;19994;-76
2023/03/08 03:06:52;;;;;;;;;;;;;;;;;;4451749;32;20346;-76
2023/03/08 03:09:18;;;;;;;;;;;;;;;;;;4453548;32;19976;-76
2023/03/08 03:11:43;;;;;;;;;;;;;;;;;;4453343;32;20026;-76
2023/03/08 03:14:08;;;;;;;;;;;;;;;;;;4451836;32;19933;-76
2023/03/08 03:16:33;;;;;;;;;;;;;;;;;;4452742;32;20265;-77
2023/03/08 03:19:09;;;;;;;;;;;;;;;;;;4451738;32;19940;-76
2023/03/08 03:21:34;;;;;;;;;;;;;;;;;;4452529;32;19967;-76
2023/03/08 03:23:59;;;;;;;;;;;;;;;;;;4438097;32;19937;-76
2023/03/08 03:26:24;;;;;;;;;;;;;;;;;;4451882;32;20007;-76
2023/03/08 03:28:51;;;;;;;;;;;;;;;;;;4452173;32;20291;-76
2023/03/08 03:31:16;;;;;;;;;;;;;;;;;;4437753;32;20274;-76
2023/03/08 03:33:41;;;;;;;;;;;;;;;;;;4437394;32;19980;-75
2023/03/08 03:36:06;;;;;;;;;;;;;;;;;;4452832;32;20344;-76
2023/03/08 03:38:31;;;;;;;;;;;;;;;;;;4451637;32;19937;-76
2023/03/08 03:40:56;;;;;;;;;;;;;;;;;;4452782;32;20329;-76
2023/03/08 03:43:22;;;;;;;;;;;;;;;;;;4452534;32;19941;-76
2023/03/08 03:45:47;;;;;;;;;;;;;;;;;;4451943;32;20380;-76
2023/03/08 03:50:42;;;;;;;;;;;;;;;;;;4451876;32;19973;-76
2023/03/08 03:53:07;;;;;;;;;;;;;;;;;;4451248;32;20027;-76
2023/03/08 03:55:32;;;;;;;;;;;;;;;;;;4451982;32;19932;-76
2023/03/08 03:57:57;;;;;;;;;;;;;;;;;;4437389;32;20004;-76
2023/03/08 04:00:22;;;;;;;;;;;;;;;;;;4453663;32;19967;-75
2023/03/08 04:02:47;;;;;;;;;;;;;;;;;;4452567;32;20329;-77
2023/03/08 04:05:12;;;;;;;;;;;;;;;;;;4452200;32;19933;-77
2023/03/08 04:07:37;;;;;;;;;;;;;;;;;;4454381;32;19983;-76
2023/03/08 04:10:02;;;;;;;;;;;;;;;;;;4455465;32;19944;-77
2023/03/08 04:12:27;;;;;;;;;;;;;;;;;;4454439;32;20012;-77
2023/03/08 04:14:53;;;;;;;;;;;;;;;;;;4455472;32;19932;-77
2023/03/08 04:17:18;;;;;;;;;;;;;;;;;;4455078;32;19941;-77
2023/03/08 04:19:43;;;;;;;;;;;;;;;;;;4458198;32;19941;-77
2023/03/08 04:22:08;;;;;;;;;;;;;;;;;;4461611;32;19936;-77
2023/03/08 04:24:33;;;;;;;;;;;;;;;;;;4457488;32;19936;-77
2023/03/08 04:26:58;;;;;;;;;;;;;;;;;;4453882;32;19951;-77
2023/03/08 04:29:23;;;;;;;;;;;;;;;;;;4454016;32;19932;-77
2023/03/08 04:31:49;;;;;;;;;;;;;;;;;;4454467;32;19951;-77
2023/03/08 04:34:14;;;;;;;;;;;;;;;;;;4456099;32;19950;-77
2023/03/08 04:36:39;;;;;;;;;;;;;;;;;;4454516;32;19937;-77
2023/03/08 04:39:04;;;;;;;;;;;;;;;;;;4454108;32;19937;-77
2023/03/08 04:41:29;;;;;;;;;;;;;;;;;;4440608;32;19951;-77
2023/03/08 04:43:54;;;;;;;;;;;;;;;;;;4454215;32;19951;-77
2023/03/08 04:46:19;;;;;;;;;;;;;;;;;;4453571;32;19936;-76
2023/03/08 04:48:44;;;;;;;;;;;;;;;;;;4466434;32;19936;-76
2023/03/08 04:51:09;;;;;;;;;;;;;;;;;;4471591;32;20365;-75
2023/03/08 04:53:34;;;;;;;;;;;;;;;;;;4470948;32;19940;-77
2023/03/08 04:56:00;;;;;;;;;;;;;;;;;;4468964;32;19951;-75
2023/03/08 04:58:25;;;;;;;;;;;;;;;;;;4469056;32;19970;-77
2023/03/08 05:00:50;;;;;;;;;;;;;;;;;;4467695;32;19942;-77
2023/03/08 05:03:15;;;;;;;;;;;;;;;;;;4470442;32;19932;-75
2023/03/08 05:05:40;;;;;;;;;;;;;;;;;;4470484;32;20358;-75
2023/03/08 05:08:05;;;;;;;;;;;;;;;;;;4468873;32;20009;-75
2023/03/08 05:10:30;;;;;;;;;;;;;;;;;;4467637;32;19936;-76
2023/03/08 05:12:56;;;;;;;;;;;;;;;;;;4470021;32;19976;-75
2023/03/08 05:15:24;;;;;;;;;;;;;;;;;;4469917;32;19940;-76
2023/03/08 05:17:49;;;;;;;;;;;;;;;;;;4468738;32;19995;-76
2023/03/08 05:20:14;;;;;;;;;;;;;;;;;;4469698;32;19940;-76
2023/03/08 05:22:39;;;;;;;;;;;;;;;;;;4469085;32;20275;-75
2023/03/08 05:25:04;;;;;;;;;;;;;;;;;;4469488;32;20330;-76
2023/03/08 05:27:29;;;;;;;;;;;;;;;;;;4469515;32;19940;-76
2023/03/08 05:29:54;;;;;;;;;;;;;;;;;;4468771;32;20011;-75
2023/03/08 05:32:19;;;;;;;;;;;;;;;;;;4467094;32;20261;-76
2023/03/08 05:34:44;;;;;;;;;;;;;;;;;;4468195;32;19932;-76
2023/03/08 05:37:10;;;;;;;;;;;;;;;;;;4469713;32;19967;-75
2023/03/08 05:39:35;;;;;;;;;;;;;;;;;;4469256;32;19967;-75
2023/03/08 05:42:00;;;;;;;;;;;;;;;;;;4468137;32;19932;-76
2023/03/08 05:44:25;;;;;;;;;;;;;;;;;;4468402;32;19987;-75
2023/03/08 05:46:50;;;;;;;;;;;;;;;;;;4470093;32;20000;-76
2023/03/08 05:49:16;;;;;;;;;;;;;;;;;;4474349;32;19940;-75
2023/03/08 05:51:41;;;;;;;;;;;;;;;;;;4471324;32;20282;-75
2023/03/08 05:54:06;;;;;;;;;;;;;;;;;;4471181;32;19976;-76
2023/03/08 05:56:31;;;;;;;;;;;;;;;;;;4468796;32;19947;-75
2023/03/08 05:58:56;;;;;;;;;;;;;;;;;;4467104;32;19962;-75
2023/03/08 06:01:21;;;;;;;;;;;;;;;;;;4469032;32;20032;-75
2023/03/08 06:03:46;;;;;;;;;;;;;;;;;;4469818;32;19936;-76
2023/03/08 06:06:11;;;;;;;;;;;;;;;;;;4466774;32;19936;-76
2023/03/08 06:08:36;;;;;;;;;;;;;;;;;;4467934;32;19935;-76
2023/03/08 06:11:02;;;;;;;;;;;;;;;;;;4466711;32;20283;-76
2023/03/08 06:13:27;;;;;;;;;;;;;;;;;;4467982;32;20000;-75
2023/03/08 06:15:52;;;;;;;;;;;;;;;;;;4467841;32;19947;-75
2023/03/08 06:18:17;;;;;;;;;;;;;;;;;;4468134;32;19966;-76
2023/03/08 06:20:43;;;;;;;;;;;;;;;;;;4440970;32;19932;-75
2023/03/08 06:25:52;;;;;;;;;;;;;;;;;;4453643;32;19952;-75
2023/03/08 06:28:18;;;;;;;;;;;;;;;;;;4437903;32;19968;-75
2023/03/08 06:30:43;;;;;;;;;;;;;;;;;;4439230;32;19936;-76
2023/03/08 06:33:08;;;;;;;;;;;;;;;;;;4452962;32;19991;-77
2023/03/08 06:35:33;;;;;;;;;;;;;;;;;;4452028;32;19969;-77
2023/03/08 06:37:58;;;;;;;;;;;;;;;;;;4438907;32;19992;-76
2023/03/08 06:40:23;;;;;;;;;;;;;;;;;;4438500;32;19936;-77
2023/03/08 06:42:48;;;;;;;;;;;;;;;;;;4465231;32;19936;-76
2023/03/08 06:45:13;;;;;;;;;;;;;;;;;;4469244;32;19936;-76
2023/03/08 06:47:38;;;;;;;;;;;;;;;;;;4467624;32;19943;-75
2023/03/08 06:50:04;;;;;;;;;;;;;;;;;;4461522;32;19962;-76
2023/03/08 06:52:36;;;;;;;;;;;;;;;;;;4452988;32;19937;-76
2023/03/08 06:55:01;;;;;;;;;;;;;;;;;;4452186;32;19936;-76
2023/03/08 06:57:26;;;;;;;;;;;;;;;;;;4451352;32;19932;-76
2023/03/08 06:59:51;;;;;;;;;;;;;;;;;;4453253;32;19932;-76
2023/03/08 07:02:16;;;;;;;;;;;;;;;;;;4452085;32;19933;-76
2023/03/08 07:04:41;;;;;;;;;;;;;;;;;;4454557;32;20322;-76
2023/03/08 07:07:06;;;;;;;;;;;;;;;;;;4451702;32;19941;-75
2023/03/08 07:09:31;;;;;;;;;;;;;;;;;;4451936;32;20246;-78
2023/03/08 07:11:57;;;;;;;;;;;;;;;;;;4464595;32;19955;-76
2023/03/08 07:14:22;;;;;;;;;;;;;;;;;;4453737;32;19988;-76
2023/03/08 07:16:48;;;;;;;;;;;;;;;;;;4454700;32;20329;-76
2023/03/08 07:19:13;;;;;;;;;;;;;;;;;;4469654;32;19940;-76
2023/03/08 07:21:38;;;;;;;;;;;;;;;;;;4467438;32;19989;-76
2023/03/08 07:24:03;;;;;;;;;;;;;;;;;;4469211;32;19948;-76
2023/03/08 07:26:29;;;;;;;;;;;;;;;;;;4467646;32;19932;-76
2023/03/08 07:28:54;;;;;;;;;;;;;;;;;;4467920;32;19955;-76
2023/03/08 07:31:19;;;;;;;;;;;;;;;;;;4467455;32;19951;-77
2023/03/08 07:33:45;;;;;;;;;;;;;;;;;;4467454;32;19970;-77
2023/03/08 07:36:10;;;;;;;;;;;;;;;;;;4468407;32;20254;-77
2023/03/08 07:38:35;;;;;;;;;;;;;;;;;;4447060;32;19988;-77
2023/03/08 07:41:00;;;;;;;;;;;;;;;;;;4468930;32;19948;-77
2023/03/08 07:43:25;;;;;;;;;;;;;;;;;;4472876;32;19972;-77
2023/03/08 07:45:50;;;;;;;;;;;;;;;;;;4457728;32;19956;-77
2023/03/08 07:48:15;;;;;;;;;;;;;;;;;;4459121;32;19940;-76
2023/03/08 07:50:40;;;;;;;;;;;;;;;;;;4458961;32;19974;-76
2023/03/08 07:53:06;;;;;;;;;;;;;;;;;;4469813;32;20268;-76
2023/03/08 07:55:32;;;;;;;;;;;;;;;;;;4455886;32;19988;-76
2023/03/08 07:57:57;;;;;;;;;;;;;;;;;;4470189;32;19963;-76
2023/03/08 08:00:22;;;;;;;;;;;;;;;;;;4469540;32;20347;-76
2023/03/08 08:02:48;;;;;;;;;;;;;;;;;;4455672;32;19932;-77
2023/03/08 08:05:13;;;;;;;;;;;;;;;;;;4457691;32;19940;-76
2023/03/08 08:07:38;;;;;;;;;;;;;;;;;;4469957;32;19979;-77
2023/03/08 08:10:03;;;;;;;;;;;;;;;;;;4455382;32;20386;-77
2023/03/08 08:12:28;;;;;;;;;;;;;;;;;;4455723;32;20361;-78
2023/03/08 08:14:53;;;;;;;;;;;;;;;;;;4456214;32;19947;-78
2023/03/08 08:17:18;;;;;;;;;;;;;;;;;;4457473;32;19964;-78
2023/03/08 08:19:43;;;;;;;;;;;;;;;;;;4471104;32;19959;-78
2023/03/08 08:22:08;;;;;;;;;;;;;;;;;;4455437;32;19946;-77
2023/03/08 08:24:33;;;;;;;;;;;;;;;;;;4455601;32;19951;-78
2023/03/08 08:26:59;;;;;;;;;;;;;;;;;;4470959;32;19960;-78
2023/03/08 08:29:24;;;;;;;;;;;;;;;;;;4472357;32;19946;-79
2023/03/08 08:31:51;;;;;;;;;;;;;;;;;;4456254;32;19967;-78
2023/03/08 08:34:16;;;;;;;;;;;;;;;;;;4456457;32;19951;-78
2023/03/08 08:36:41;;;;;;;;;;;;;;;;;;4454860;32;19940;-78
2023/03/08 08:39:06;;;;;;;;;;;;;;;;;;4469382;32;20386;-78
2023/03/08 08:41:32;;;;;;;;;;;;;;;;;;4470238;32;19932;-78
2023/03/08 08:43:58;;;;;;;;;;;;;;;;;;4468973;32;19944;-78
2023/03/08 08:46:23;;;;;;;;;;;;;;;;;;4469352;32;20283;-78
2023/03/08 08:48:48;;;;;;;;;;;;;;;;;;4471486;32;19936;-79
2023/03/08 08:51:13;;;;;;;;;;;;;;;;;;4469245;32;19950;-79
2023/03/08 08:53:39;;;;;;;;;;;;;;;;;;4469659;32;19937;-79
2023/03/08 08:56:04;;;;;;;;;;;;;;;;;;4454888;32;20230;-78
2023/03/08 08:58:29;;;;;;;;;;;;;;;;;;4455454;32;19944;-78
2023/03/08 09:00:54;;;;;;;;;;;;;;;;;;4453750;32;19936;-78
2023/03/08 09:03:19;;;;;;;;;;;;;;;;;;4440125;32;19983;-77
2023/03/08 09:05:44;;;;;;;;;;;;;;;;;;4454025;32;19943;-78
2023/03/08 09:08:09;;;;;;;;;;;;;;;;;;4453512;32;20008;-78
2023/03/08 09:10:34;;;;;;;;;;;;;;;;;;4453970;32;19947;-78
2023/03/08 09:13:00;;;;;;;;;;;;;;;;;;4454737;32;19936;-79
2023/03/08 09:15:25;;;;;;;;;;;;;;;;;;4439550;32;19936;-78
2023/03/08 09:17:50;;;;;;;;;;;;;;;;;;4453921;32;20223;-78
2023/03/08 09:20:15;;;;;;;;;;;;;;;;;;4454276;32;19988;-77
2023/03/08 09:22:40;;;;;;;;;;;;;;;;;;4438887;32;19974;-78
2023/03/08 09:25:05;;;;;;;;;;;;;;;;;;4453765;32;20215;-80
2023/03/08 09:27:30;;;;;;;;;;;;;;;;;;4453661;32;19937;-80
2023/03/08 09:29:55;;;;;;;;;;;;;;;;;;4439075;32;19970;-80
2023/03/08 09:32:20;;;;;;;;;;;;;;;;;;4439198;32;19940;-80
2023/03/08 09:34:46;;;;;;;;;;;;;;;;;;4453071;32;19951;-80
2023/03/08 09:37:11;;;;;;;;;;;;;;;;;;4440664;32;19940;-80
2023/03/08 09:39:37;;;;;;;;;;;;;;;;;;4438866;32;19947;-80
2023/03/08 09:42:02;;;;;;;;;;;;;;;;;;4453335;32;19954;-79
2023/03/08 09:44:27;;;;;;;;;;;;;;;;;;4452910;32;19964;-78
2023/03/08 09:46:52;;;;;;;;;;;;;;;;;;4452616;32;19936;-79
2023/03/08 09:49:17;;;;;;;;;;;;;;;;;;4453381;32;19976;-80
2023/03/08 09:51:43;;;;;;;;;;;;;;;;;;4453862;32;19941;-79
2023/03/08 09:54:08;;;;;;;;;;;;;;;;;;4453864;32;19978;-79
2023/03/08 09:56:33;;;;;;;;;;;;;;;;;;4454280;32;20051;-79
2023/03/08 09:58:58;;;;;;;;;;;;;;;;;;4453811;32;19975;-79
2023/03/08 10:01:23;;;;;;;;;;;;;;;;;;4452914;32;19987;-79
2023/03/08 10:03:48;;;;;;;;;;;;;;;;;;4451628;32;19982;-78
2023/03/08 10:06:14;;;;;;;;;;;;;;;;;;4452583;32;20219;-78
2023/03/08 10:08:39;;;;;;;;;;;;;;;;;;4451314;32;19939;-78
2023/03/08 10:11:06;;;;;;;;;;;;;;;;;;4451932;32;19971;-77
2023/03/08 10:13:31;;;;;;;;;;;;;;;;;;4451919;32;19928;-77
2023/03/08 10:15:56;;;;;;;;;;;;;;;;;;4454502;32;19932;-76
2023/03/08 10:18:21;;;;;;;;;;;;;;;;;;4476907;32;19935;-75
2023/03/08 10:20:48;;;;;;;;;;;;;;;;;;4459095;32;19940;-75
2023/03/08 10:23:13;;;;;;;;;;;;;;;;;;4453545;32;19952;-75
2023/03/08 10:25:38;;;;;;;;;;;;;;;;;;4450996;32;19978;-75
2023/03/08 10:28:03;;;;;;;;;;;;;;;;;;4464437;32;20290;-75
2023/03/08 10:30:28;;;;;;;;;;;;;;;;;;4449337;32;19945;-75
2023/03/08 10:32:53;;;;;;;;;;;;;;;;;;4465478;32;19940;-75
2023/03/08 10:35:19;;;;;;;;;;;;;;;;;;4442905;32;20291;-74
2023/03/08 10:37:44;;;;;;;;;;;;;;;;;;4462344;32;19954;-74
2023/03/08 10:40:09;;;;;;;;;;;;;;;;;;4442879;32;19960;-74
2023/03/08 10:42:34;;;;;;;;;;;;;;;;;;4449720;32;19948;-75
2023/03/08 10:44:59;;;;;;;;;;;;;;;;;;4467607;32;19951;-75
2023/03/08 10:47:24;;;;;;;;;;;;;;;;;;4451116;32;19977;-74
2023/03/08 10:49:50;;;;;;;;;;;;;;;;;;4451484;32;19953;-74
2023/03/08 10:52:15;;;;;;;;;;;;;;;;;;4453221;32;19943;-73
2023/03/08 10:54:41;;;;;;;;;;;;;;;;;;4450570;32;19937;-74
2023/03/08 10:57:06;;;;;;;;;;;;;;;;;;4465347;32;19964;-74
2023/03/08 10:59:31;;;;;;;;;;;;;;;;;;4463555;32;19936;-74
2023/03/08 11:01:58;;;;;;;;;;;;;;;;;;4447133;32;19932;-74
2023/03/08 11:04:23;;;;;;;;;;;;;;;;;;4446120;32;20237;-74
2023/03/08 11:06:49;;;;;;;;;;;;;;;;;;4466562;32;20286;-74
2023/03/08 11:09:14;;;;;;;;;;;;;;;;;;4451216;32;20318;-75
2023/03/08 11:11:39;;;;;;;;;;;;;;;;;;4451531;32;19936;-76
2023/03/08 11:14:04;;;;;;;;;;;;;;;;;;4437457;32;20004;-76
2023/03/08 11:16:29;;;;;;;;;;;;;;;;;;4451790;32;19944;-75
2023/03/08 11:18:54;;;;;;;;;;;;;;;;;;4448422;32;19940;-75
2023/03/08 11:21:19;;;;;;;;;;;;;;;;;;4454400;32;20010;-76
2023/03/08 11:23:44;;;;;;;;;;;;;;;;;;4463093;32;19944;-75
2023/03/08 11:26:11;;;;;;;;;;;;;;;;;;4461509;32;20368;-75
2023/03/08 11:28:37;;;;;;;;;;;;;;;;;;4457167;32;20302;-75
2023/03/08 11:31:02;;;;;;;;;;;;;;;;;;4451551;32;20275;-76
2023/03/08 11:33:27;;;;;;;;;;;;;;;;;;4437146;32;19989;-74
2023/03/08 11:35:52;;;;;;;;;;;;;;;;;;4452332;32;19947;-75
2023/03/08 11:38:17;;;;;;;;;;;;;;;;;;4436992;32;19937;-74
2023/03/08 11:40:42;;;;;;;;;;;;;;;;;;4437363;32;19940;-74
2023/03/08 11:43:07;;;;;;;;;;;;;;;;;;4451066;32;19974;-75
2023/03/08 11:45:32;;;;;;;;;;;;;;;;;;4470509;32;19976;-75
2023/03/08 11:47:58;;;;;;;;;;;;;;;;;;4467246;32;20396;-75
2023/03/08 11:50:23;;;;;;;;;;;;;;;;;;4453780;32;19976;-74
2023/03/08 11:52:48;;;;;;;;;;;;;;;;;;4467074;32;20044;-77
2023/03/08 11:55:13;;;;;;;;;;;;;;;;;;4466704;32;19976;-75
2023/03/08 11:57:38;;;;;;;;;;;;;;;;;;4450610;32;20039;-74
2023/03/08 12:00:11;;;;;;;;;;;;;;;;;;4463814;32;19973;-75
2023/03/08 12:02:37;;;;;;;;;;;;;;;;;;4450916;32;20001;-73
2023/03/08 12:05:02;;;;;;;;;;;;;;;;;;4451783;32;20305;-75
2023/03/08 12:07:27;;;;;;;;;;;;;;;;;;4465760;32;20004;-74
2023/03/08 12:09:52;;;;;;;;;;;;;;;;;;4449510;32;19959;-75
2023/03/08 12:12:18;;;;;;;;;;;;;;;;;;4451367;32;19972;-75
2023/03/08 12:14:43;;;;;;;;;;;;;;;;;;4451190;32;20018;-74
2023/03/08 12:17:08;;;;;;;;;;;;;;;;;;4444990;32;19972;-75
2023/03/08 12:19:33;;;;;;;;;;;;;;;;;;4451734;32;19940;-75
2023/03/08 12:21:58;;;;;;;;;;;;;;;;;;4451693;32;20380;-75
2023/03/08 12:24:23;;;;;;;;;;;;;;;;;;4460261;32;19944;-75
2023/03/08 12:26:48;;;;;;;;;;;;;;;;;;4443516;32;19956;-75
2023/03/08 12:29:14;;;;;;;;;;;;;;;;;;4456239;32;20003;-75
2023/03/08 12:31:39;;;;;;;;;;;;;;;;;;4467777;32;19936;-75
2023/03/08 12:34:04;;;;;;;;;;;;;;;;;;4464127;32;19976;-76
2023/03/08 12:36:29;;;;;;;;;;;;;;;;;;4466162;32;19988;-76
2023/03/08 12:38:55;;;;;;;;;;;;;;;;;;4454304;32;19979;-75
2023/03/08 12:41:20;;;;;;;;;;;;;;;;;;4450009;32;19940;-76
2023/03/08 12:43:45;;;;;;;;;;;;;;;;;;4449849;32;19952;-75
2023/03/08 12:46:10;;;;;;;;;;;;;;;;;;4457832;32;19997;-74
2023/03/08 12:48:36;;;;;;;;;;;;;;;;;;4460353;32;20310;-75
2023/03/08 12:51:01;;;;;;;;;;;;;;;;;;4459969;32;19979;-75
2023/03/08 12:53:26;;;;;;;;;;;;;;;;;;4469305;32;19947;-75
2023/03/08 12:55:51;;;;;;;;;;;;;;;;;;4468802;32;19947;-74
2023/03/08 12:58:16;;;;;;;;;;;;;;;;;;4469034;32;19966;-74
2023/03/08 13:00:42;;;;;;;;;;;;;;;;;;4454631;32;19936;-74
2023/03/08 13:03:07;;;;;;;;;;;;;;;;;;4469816;32;19963;-75
2023/03/08 13:05:32;;;;;;;;;;;;;;;;;;4468783;32;19966;-75
2023/03/08 13:07:57;;;;;;;;;;;;;;;;;;4457809;32;19968;-75
2023/03/08 13:10:23;;;;;;;;;;;;;;;;;;4470062;32;19932;-73
2023/03/08 13:12:48;;;;;;;;;;;;;;;;;;4468609;32;19973;-75
2023/03/08 13:15:13;;;;;;;;;;;;;;;;;;4469402;32;20313;-75
2023/03/08 13:17:38;;;;;;;;;;;;;;;;;;4453757;32;20345;-76
2023/03/08 13:20:06;;;;;;;;;;;;;;;;;;4458823;32;20381;-75
2023/03/08 13:22:31;;;;;;;;;;;;;;;;;;4451212;32;19929;-76
2023/03/08 13:24:57;;;;;;;;;;;;;;;;;;4452918;32;19932;-75
2023/03/08 13:27:22;;;;;;;;;;;;;;;;;;4453015;32;19936;-75
2023/03/08 13:29:47;;;;;;;;;;;;;;;;;;4453719;32;20290;-76
2023/03/08 13:32:12;;;;;;;;;;;;;;;;;;4453334;32;19965;-75
2023/03/08 13:34:37;;;;;;;;;;;;;;;;;;4453628;32;19972;-75
2023/03/08 13:37:02;;;;;;;;;;;;;;;;;;4454691;32;19951;-75
2023/03/08 13:39:28;;;;;;;;;;;;;;;;;;4456000;32;19992;-76
2023/03/08 13:41:53;;;;;;;;;;;;;;;;;;4448949;32;19951;-75
2023/03/08 13:44:19;;;;;;;;;;;;;;;;;;4454967;32;19937;-75
2023/03/08 13:46:44;;;;;;;;;;;;;;;;;;4454404;32;19937;-75
2023/03/08 13:49:09;;;;;;;;;;;;;;;;;;4454885;32;19940;-75
2023/03/08 13:51:34;;;;;;;;;;;;;;;;;;4453144;32;19947;-75
2023/03/08 13:53:59;;;;;;;;;;;;;;;;;;4453092;32;19960;-75
2023/03/08 13:56:24;;;;;;;;;;;;;;;;;;4452484;32;19932;-76
2023/03/08 13:58:50;;;;;;;;;;;;;;;;;;4438289;32;19970;-76
2023/03/08 14:01:16;;;;;;;;;;;;;;;;;;4441639;32;20276;-76
2023/03/08 14:03:41;;;;;;;;;;;;;;;;;;4470279;32;19943;-76
2023/03/08 14:06:06;;;;;;;;;;;;;;;;;;4454478;32;19964;-76
2023/03/08 14:08:31;;;;;;;;;;;;;;;;;;4439702;32;19940;-76
2023/03/08 14:10:56;;;;;;;;;;;;;;;;;;4454111;32;19940;-76
2023/03/08 14:13:21;;;;;;;;;;;;;;;;;;4468091;32;19935;-76
2023/03/08 14:15:46;;;;;;;;;;;;;;;;;;4454236;32;19940;-76
2023/03/08 14:18:11;;;;;;;;;;;;;;;;;;4469130;32;19931;-77
2023/03/08 14:20:36;;;;;;;;;;;;;;;;;;4469023;32;20350;-76
2023/03/08 14:23:02;;;;;;;;;;;;;;;;;;4454942;32;19937;-76
2023/03/08 14:25:27;;;;;;;;;;;;;;;;;;4438088;32;20315;-77
2023/03/08 14:27:52;;;;;;;;;;;;;;;;;;4451648;32;19992;-77
2023/03/08 14:30:17;;;;;;;;;;;;;;;;;;4452031;32;19968;-75
2023/03/08 14:32:43;;;;;;;;;;;;;;;;;;4440457;32;20318;-76
2023/03/08 14:35:08;;;;;;;;;;;;;;;;;;4453501;32;19963;-76
2023/03/08 14:37:33;;;;;;;;;;;;;;;;;;4453169;32;19987;-76
2023/03/08 14:39:58;;;;;;;;;;;;;;;;;;4454599;32;19936;-76
2023/03/08 14:42:23;;;;;;;;;;;;;;;;;;4453465;32;20354;-76
2023/03/08 14:44:48;;;;;;;;;;;;;;;;;;4453024;32;19968;-77
2023/03/08 14:47:13;;;;;;;;;;;;;;;;;;4455161;32;19969;-76
2023/03/08 14:49:39;;;;;;;;;;;;;;;;;;4458146;32;19964;-77
2023/03/08 14:52:10;;;;;;;;;;;;;;;;;;4469410;32;19940;-76
2023/03/08 14:54:35;;;;;;;;;;;;;;;;;;4469323;32;19940;-75
2023/03/08 14:57:00;;;;;;;;;;;;;;;;;;4467585;32;19992;-76
2023/03/08 14:59:25;;;;;;;;;;;;;;;;;;4467568;32;19944;-76
2023/03/08 15:01:51;;;;;;;;;;;;;;;;;;4467329;32;19958;-75
2023/03/08 15:04:16;;;;;;;;;;;;;;;;;;4468066;32;19936;-75
2023/03/08 15:06:43;;;;;;;;;;;;;;;;;;4450136;32;19980;-75
2023/03/08 15:09:08;;;;;;;;;;;;;;;;;;4462475;32;20423;-74
2023/03/08 15:11:33;;;;;;;;;;;;;;;;;;4464153;32;20314;-74
2023/03/08 15:13:58;;;;;;;;;;;;;;;;;;4436856;32;20401;-74
2023/03/08 15:16:23;;;;;;;;;;;;;;;;;;4436813;32;19995;-75
2023/03/08 15:18:48;;;;;;;;;;;;;;;;;;4451348;32;19983;-74
2023/03/08 15:23:43;;;;;;;;;;;;;;;;;;4452435;32;19932;-75
2023/03/08 15:26:08;;;;;;;;;;;;;;;;;;4450596;32;19967;-74
2023/03/08 15:28:34;;;;;;;;;;;;;;;;;;4452710;32;20322;-75
2023/03/08 15:30:59;;;;;;;;;;;;;;;;;;4452301;32;19970;-74
2023/03/08 15:33:24;;;;;;;;;;;;;;;;;;4451120;32;19941;-74
2023/03/08 15:35:49;;;;;;;;;;;;;;;;;;4451263;32;19955;-74
2023/03/08 15:38:15;;;;;;;;;;;;;;;;;;4451428;32;19944;-74
2023/03/08 15:40:40;;;;;;;;;;;;;;;;;;4449967;32;20030;-74
2023/03/08 15:43:05;;;;;;;;;;;;;;;;;;4449810;32;19986;-74
2023/03/08 15:45:30;;;;;;;;;;;;;;;;;;4449723;32;20265;-74
2023/03/08 15:47:55;;;;;;;;;;;;;;;;;;4450911;32;20390;-74
2023/03/08 15:50:20;;;;;;;;;;;;;;;;;;4450789;32;19949;-74
2023/03/08 15:52:45;;;;;;;;;;;;;;;;;;4449536;32;19941;-74
2023/03/08 15:55:10;;;;;;;;;;;;;;;;;;4452177;32;19970;-74
2023/03/08 15:57:36;;;;;;;;;;;;;;;;;;4451297;32;20271;-74
2023/03/08 16:00:05;;;;;;;;;;;;;;;;;;4451198;32;20318;-74
2023/03/08 16:02:30;;;;;;;;;;;;;;;;;;4456118;32;19957;-74
2023/03/08 16:04:56;;;;;;;;;;;;;;;;;;4445765;32;19955;-73
2023/03/08 16:07:22;;;;;;;;;;;;;;;;;;4468399;32;19983;-76
2023/03/08 16:09:47;;;;;;;;;;;;;;;;;;4469081;32;20304;-75
2023/03/08 16:12:12;;;;;;;;;;;;;;;;;;4465205;32;19947;-74
2023/03/08 16:14:37;;;;;;;;;;;;;;;;;;4440109;32;19950;-75
2023/03/08 16:17:02;;;;;;;;;;;;;;;;;;4455410;32;19959;-75
2023/03/08 16:19:27;;;;;;;;;;;;;;;;;;4440222;32;19987;-75
2023/03/08 16:21:53;;;;;;;;;;;;;;;;;;4439403;32;19990;-75
2023/03/08 16:24:18;;;;;;;;;;;;;;;;;;4439284;32;19967;-74
2023/03/08 16:26:43;;;;;;;;;;;;;;;;;;4454397;32;19988;-75
2023/03/08 16:29:08;;;;;;;;;;;;;;;;;;4453904;32;19990;-75
2023/03/08 16:31:34;;;;;;;;;;;;;;;;;;4454878;32;19940;-75
2023/03/08 16:33:59;;;;;;;;;;;;;;;;;;4453156;32;20257;-74
2023/03/08 16:36:24;;;;;;;;;;;;;;;;;;4454111;32;19941;-74
2023/03/08 16:38:49;;;;;;;;;;;;;;;;;;4453826;32;20324;-75